Terminal Aerodrome Forecast
Issued by NWS Indianapolis, IN

Home | Current Version | Previous Version | Text Only | Print | Product List | Glossary On
Versions: 1 2 3 4 5 6 7 8 9 10 11 12 13 14 15 16 17 18 19 20 21 22 23 24 25 26 27 28 29
000
FTUS43 KIND 221400 AAA
TAFIND
TAF AMD
KIND 221408Z 2214/2318 16009KT P6SM VCSH BKN050 OVC090
      WS020/23050KT
     FM221700 19014G24KT P6SM VCSH BKN040 OVC060 WS020/23055KT
     FM222300 18011KT P6SM VCSH OVC040
     FM231200 15008KT 6SM BR OVC020=

USA.gov is the U.S. government's official web portal to all federal, state and local government web resources and services.